sensor_id;sensor_type;location;lat;lon;timestamp;temperature;humidity
14471;DHT22;7321;50.802;4.336;2022-10-16T00:01:12;16.10;99.90
14471;DHT22;7321;50.802;4.336;2022-10-16T00:03:39;16.20;99.90
14471;DHT22;7321;50.802;4.336;2022-10-16T00:06:05;16.20;99.90
14471;DHT22;7321;50.802;4.336;2022-10-16T00:08:31;16.20;99.90
14471;DHT22;7321;50.802;4.336;2022-10-16T00:11:02;16.10;99.90
14471;DHT22;7321;50.802;4.336;2022-10-16T00:13:29;16.00;99.90
14471;DHT22;7321;50.802;4.336;2022-10-16T00:15:57;15.90;99.90
14471;DHT22;7321;50.802;4.336;2022-10-16T00:18:24;15.90;99.90
14471;DHT22;7321;50.802;4.336;2022-10-16T00:20:50;16.00;99.90
14471;DHT22;7321;50.802;4.336;2022-10-16T00:23:15;16.00;99.90
14471;DHT22;7321;50.802;4.336;2022-10-16T00:25:41;15.90;99.90
14471;DHT22;7321;50.802;4.336;2022-10-16T00:28:07;15.90;99.90
14471;DHT22;7321;50.802;4.336;2022-10-16T00:30:33;15.90;99.90
14471;DHT22;7321;50.802;4.336;2022-10-16T00:32:58;16.00;99.90
14471;DHT22;7321;50.802;4.336;2022-10-16T00:35:24;15.90;99.90
14471;DHT22;7321;50.802;4.336;2022-10-16T00:37:50;15.90;99.90
14471;DHT22;7321;50.802;4.336;2022-10-16T00:40:16;16.00;99.90
14471;DHT22;7321;50.802;4.336;2022-10-16T00:42:41;16.00;99.90
14471;DHT22;7321;50.802;4.336;2022-10-16T00:45:08;15.90;99.90
14471;DHT22;7321;50.802;4.336;2022-10-16T00:47:39;15.90;99.90
14471;DHT22;7321;50.802;4.336;2022-10-16T00:52:50;15.90;99.90
14471;DHT22;7321;50.802;4.336;2022-10-16T00:55:17;15.90;99.90
14471;DHT22;7321;50.802;4.336;2022-10-16T00:57:43;15.80;99.90
14471;DHT22;7321;50.802;4.336;2022-10-16T01:00:11;15.70;99.90
14471;DHT22;7321;50.802;4.336;2022-10-16T01:02:38;15.70;99.90
14471;DHT22;7321;50.802;4.336;2022-10-16T01:05:04;15.80;99.90
14471;DHT22;7321;50.802;4.336;2022-10-16T01:10:32;15.70;99.90
14471;DHT22;7321;50.802;4.336;2022-10-16T01:13:07;15.70;99.90
14471;DHT22;7321;50.802;4.336;2022-10-16T01:15:54;15.70;99.90
14471;DHT22;7321;50.802;4.336;2022-10-16T01:21:24;15.70;99.90
14471;DHT22;7321;50.802;4.336;2022-10-16T01:29:42;15.60;99.90
14471;DHT22;7321;50.802;4.336;2022-10-16T01:35:01;15.70;99.90
14471;DHT22;7321;50.802;4.336;2022-10-16T01:38:03;15.50;99.90
14471;DHT22;7321;50.802;4.336;2022-10-16T01:40:33;15.50;99.90
14471;DHT22;7321;50.802;4.336;2022-10-16T01:43:34;15.60;99.90
14471;DHT22;7321;50.802;4.336;2022-10-16T01:45:53;15.60;99.90
14471;DHT22;7321;50.802;4.336;2022-10-16T01:48:21;15.70;99.90
14471;DHT22;7321;50.802;4.336;2022-10-16T01:50:57;15.60;99.90
14471;DHT22;7321;50.802;4.336;2022-10-16T01:53:25;15.70;99.90
14471;DHT22;7321;50.802;4.336;2022-10-16T01:55:52;15.70;99.90
14471;DHT22;7321;50.802;4.336;2022-10-16T01:58:20;15.70;99.90
14471;DHT22;7321;50.802;4.336;2022-10-16T02:00:47;15.60;99.90
14471;DHT22;7321;50.802;4.336;2022-10-16T02:03:16;15.70;99.90
14471;DHT22;7321;50.802;4.336;2022-10-16T02:05:57;15.60;99.90
14471;DHT22;7321;50.802;4.336;2022-10-16T02:08:27;15.60;99.90
14471;DHT22;7321;50.802;4.336;2022-10-16T02:10:55;15.70;99.90
14471;DHT22;7321;50.802;4.336;2022-10-16T02:13:30;15.70;99.90
14471;DHT22;7321;50.802;4.336;2022-10-16T02:15:56;15.70;99.90
14471;DHT22;7321;50.802;4.336;2022-10-16T02:18:22;15.60;99.90
14471;DHT22;7321;50.802;4.336;2022-10-16T02:21:02;15.60;99.90
14471;DHT22;7321;50.802;4.336;2022-10-16T02:23:43;15.50;99.90
14471;DHT22;7321;50.802;4.336;2022-10-16T02:26:15;15.50;99.90
14471;DHT22;7321;50.802;4.336;2022-10-16T02:28:46;15.60;99.90
14471;DHT22;7321;50.802;4.336;2022-10-16T02:31:18;15.60;99.90
14471;DHT22;7321;50.802;4.336;2022-10-16T02:33:46;15.70;99.90
14471;DHT22;7321;50.802;4.336;2022-10-16T02:36:12;15.60;99.90
14471;DHT22;7321;50.802;4.336;2022-10-16T02:38:39;15.60;99.90
14471;DHT22;7321;50.802;4.336;2022-10-16T02:41:07;15.70;99.90
14471;DHT22;7321;50.802;4.336;2022-10-16T02:43:33;15.60;99.90
14471;DHT22;7321;50.802;4.336;2022-10-16T02:46:00;15.50;99.90
14471;DHT22;7321;50.802;4.336;2022-10-16T02:48:25;15.40;99.90
14471;DHT22;7321;50.802;4.336;2022-10-16T02:50:51;15.40;99.90
14471;DHT22;7321;50.802;4.336;2022-10-16T02:53:17;15.50;99.90
14471;DHT22;7321;50.802;4.336;2022-10-16T02:55:42;15.60;99.90
14471;DHT22;7321;50.802;4.336;2022-10-16T02:58:08;15.50;99.90
14471;DHT22;7321;50.802;4.336;2022-10-16T03:00:34;15.50;99.90
14471;DHT22;7321;50.802;4.336;2022-10-16T03:03:00;15.60;99.90
14471;DHT22;7321;50.802;4.336;2022-10-16T03:05:25;15.60;99.90
14471;DHT22;7321;50.802;4.336;2022-10-16T03:07:51;15.60;99.90
14471;DHT22;7321;50.802;4.336;2022-10-16T03:10:18;15.70;99.90
14471;DHT22;7321;50.802;4.336;2022-10-16T03:12:44;15.60;99.90
14471;DHT22;7321;50.802;4.336;2022-10-16T03:15:10;15.50;99.90
14471;DHT22;7321;50.802;4.336;2022-10-16T03:17:38;15.50;99.90
14471;DHT22;7321;50.802;4.336;2022-10-16T03:20:09;15.50;99.90
14471;DHT22;7321;50.802;4.336;2022-10-16T03:22:35;15.60;99.90
14471;DHT22;7321;50.802;4.336;2022-10-16T03:25:04;15.70;99.90
14471;DHT22;7321;50.802;4.336;2022-10-16T03:27:30;15.60;99.90
14471;DHT22;7321;50.802;4.336;2022-10-16T03:29:56;15.60;99.90
14471;DHT22;7321;50.802;4.336;2022-10-16T03:32:21;15.60;99.90
14471;DHT22;7321;50.802;4.336;2022-10-16T03:34:56;15.60;99.90
14471;DHT22;7321;50.802;4.336;2022-10-16T03:37:22;15.60;99.90
14471;DHT22;7321;50.802;4.336;2022-10-16T03:39:48;15.50;99.90
14471;DHT22;7321;50.802;4.336;2022-10-16T03:42:13;15.40;99.90
14471;DHT22;7321;50.802;4.336;2022-10-16T03:44:39;15.50;99.90
14471;DHT22;7321;50.802;4.336;2022-10-16T03:47:05;15.50;99.90
14471;DHT22;7321;50.802;4.336;2022-10-16T03:49:31;15.60;99.90
14471;DHT22;7321;50.802;4.336;2022-10-16T03:51:56;15.60;99.90
14471;DHT22;7321;50.802;4.336;2022-10-16T03:54:22;15.50;99.90
14471;DHT22;7321;50.802;4.336;2022-10-16T03:56:51;15.50;99.90
14471;DHT22;7321;50.802;4.336;2022-10-16T03:59:16;15.60;99.90
14471;DHT22;7321;50.802;4.336;2022-10-16T04:01:42;15.60;99.90
14471;DHT22;7321;50.802;4.336;2022-10-16T04:04:08;15.60;99.90
14471;DHT22;7321;50.802;4.336;2022-10-16T04:06:34;15.60;99.90
14471;DHT22;7321;50.802;4.336;2022-10-16T04:09:02;15.60;99.90
14471;DHT22;7321;50.802;4.336;2022-10-16T04:11:28;15.70;99.90
14471;DHT22;7321;50.802;4.336;2022-10-16T04:13:54;15.70;99.90
14471;DHT22;7321;50.802;4.336;2022-10-16T04:16:20;15.60;99.90
14471;DHT22;7321;50.802;4.336;2022-10-16T04:18:46;15.60;99.90
14471;DHT22;7321;50.802;4.336;2022-10-16T04:21:14;15.60;99.90
14471;DHT22;7321;50.802;4.336;2022-10-16T04:23:40;15.60;99.90
14471;DHT22;7321;50.802;4.336;2022-10-16T04:26:06;15.50;99.90
14471;DHT22;7321;50.802;4.336;2022-10-16T04:28:31;15.50;99.90
14471;DHT22;7321;50.802;4.336;2022-10-16T04:30:57;15.40;99.90
14471;DHT22;7321;50.802;4.336;2022-10-16T04:33:23;15.40;99.90
14471;DHT22;7321;50.802;4.336;2022-10-16T04:35:48;15.30;99.90
14471;DHT22;7321;50.802;4.336;2022-10-16T04:38:21;15.40;99.90
14471;DHT22;7321;50.802;4.336;2022-10-16T04:40:46;15.40;99.90
14471;DHT22;7321;50.802;4.336;2022-10-16T04:43:12;15.50;99.90
14471;DHT22;7321;50.802;4.336;2022-10-16T04:45:38;15.50;99.90
14471;DHT22;7321;50.802;4.336;2022-10-16T04:48:03;15.40;99.90
14471;DHT22;7321;50.802;4.336;2022-10-16T04:50:29;15.50;99.90
14471;DHT22;7321;50.802;4.336;2022-10-16T04:52:55;15.60;99.90
14471;DHT22;7321;50.802;4.336;2022-10-16T04:55:20;15.50;99.90
14471;DHT22;7321;50.802;4.336;2022-10-16T04:57:46;15.50;99.90
14471;DHT22;7321;50.802;4.336;2022-10-16T05:00:12;15.50;99.90
14471;DHT22;7321;50.802;4.336;2022-10-16T05:02:38;15.50;99.90
14471;DHT22;7321;50.802;4.336;2022-10-16T05:05:04;15.50;99.90
14471;DHT22;7321;50.802;4.336;2022-10-16T05:07:30;15.50;99.90
14471;DHT22;7321;50.802;4.336;2022-10-16T05:09:56;15.50;99.90
14471;DHT22;7321;50.802;4.336;2022-10-16T05:12:22;15.50;99.90
14471;DHT22;7321;50.802;4.336;2022-10-16T05:14:47;15.40;99.90
14471;DHT22;7321;50.802;4.336;2022-10-16T05:17:13;15.40;99.90
14471;DHT22;7321;50.802;4.336;2022-10-16T05:19:39;15.40;99.90
14471;DHT22;7321;50.802;4.336;2022-10-16T05:22:05;15.30;99.90
14471;DHT22;7321;50.802;4.336;2022-10-16T05:24:30;15.20;99.90
14471;DHT22;7321;50.802;4.336;2022-10-16T05:26:56;15.30;99.90
14471;DHT22;7321;50.802;4.336;2022-10-16T05:29:22;15.20;99.90
14471;DHT22;7321;50.802;4.336;2022-10-16T05:31:51;15.30;99.90
14471;DHT22;7321;50.802;4.336;2022-10-16T05:34:17;15.30;99.90
14471;DHT22;7321;50.802;4.336;2022-10-16T05:36:43;15.20;99.90
14471;DHT22;7321;50.802;4.336;2022-10-16T05:39:11;15.20;99.90
14471;DHT22;7321;50.802;4.336;2022-10-16T05:41:37;15.20;99.90
14471;DHT22;7321;50.802;4.336;2022-10-16T05:44:05;15.10;99.90
14471;DHT22;7321;50.802;4.336;2022-10-16T05:46:32;15.20;99.90
14471;DHT22;7321;50.802;4.336;2022-10-16T05:48:58;15.20;99.90
14471;DHT22;7321;50.802;4.336;2022-10-16T05:51:24;15.20;99.90
14471;DHT22;7321;50.802;4.336;2022-10-16T05:53:52;15.20;99.90
14471;DHT22;7321;50.802;4.336;2022-10-16T05:56:18;15.20;99.90
14471;DHT22;7321;50.802;4.336;2022-10-16T05:58:44;15.30;99.90
14471;DHT22;7321;50.802;4.336;2022-10-16T06:01:11;15.20;99.90
14471;DHT22;7321;50.802;4.336;2022-10-16T06:03:37;15.20;99.90
14471;DHT22;7321;50.802;4.336;2022-10-16T06:06:17;15.20;99.90
14471;DHT22;7321;50.802;4.336;2022-10-16T06:08:45;15.10;99.90
14471;DHT22;7321;50.802;4.336;2022-10-16T06:11:16;15.00;99.90
14471;DHT22;7321;50.802;4.336;2022-10-16T06:13:43;15.00;99.90
14471;DHT22;7321;50.802;4.336;2022-10-16T06:16:12;15.10;99.90
14471;DHT22;7321;50.802;4.336;2022-10-16T06:18:38;15.10;99.90
14471;DHT22;7321;50.802;4.336;2022-10-16T06:21:12;15.10;99.90
14471;DHT22;7321;50.802;4.336;2022-10-16T06:23:39;15.20;99.90
14471;DHT22;7321;50.802;4.336;2022-10-16T06:26:10;15.20;99.90
14471;DHT22;7321;50.802;4.336;2022-10-16T06:28:36;15.20;99.90
14471;DHT22;7321;50.802;4.336;2022-10-16T06:31:04;15.30;99.90
14471;DHT22;7321;50.802;4.336;2022-10-16T06:33:30;15.30;99.90
14471;DHT22;7321;50.802;4.336;2022-10-16T06:36:07;15.40;99.90
14471;DHT22;7321;50.802;4.336;2022-10-16T06:38:33;15.40;99.90
14471;DHT22;7321;50.802;4.336;2022-10-16T06:40:59;15.40;99.90
14471;DHT22;7321;50.802;4.336;2022-10-16T06:43:25;15.50;99.90
14471;DHT22;7321;50.802;4.336;2022-10-16T06:45:53;15.50;99.90
14471;DHT22;7321;50.802;4.336;2022-10-16T06:48:19;15.50;99.90
14471;DHT22;7321;50.802;4.336;2022-10-16T06:53:28;15.60;99.90
14471;DHT22;7321;50.802;4.336;2022-10-16T06:55:54;15.70;99.90
14471;DHT22;7321;50.802;4.336;2022-10-16T06:58:21;15.80;99.90
14471;DHT22;7321;50.802;4.336;2022-10-16T07:00:47;15.80;99.90
14471;DHT22;7321;50.802;4.336;2022-10-16T07:03:16;15.90;99.90
14471;DHT22;7321;50.802;4.336;2022-10-16T07:05:42;15.80;99.90
14471;DHT22;7321;50.802;4.336;2022-10-16T07:08:09;15.90;99.90
14471;DHT22;7321;50.802;4.336;2022-10-16T07:10:35;15.90;99.90
14471;DHT22;7321;50.802;4.336;2022-10-16T07:13:01;16.00;99.90
14471;DHT22;7321;50.802;4.336;2022-10-16T07:15:26;16.20;99.90
14471;DHT22;7321;50.802;4.336;2022-10-16T07:17:52;16.20;99.90
14471;DHT22;7321;50.802;4.336;2022-10-16T07:20:19;16.20;99.90
14471;DHT22;7321;50.802;4.336;2022-10-16T07:22:44;16.10;99.90
14471;DHT22;7321;50.802;4.336;2022-10-16T07:25:10;16.10;99.90
14471;DHT22;7321;50.802;4.336;2022-10-16T07:27:37;16.10;99.90
14471;DHT22;7321;50.802;4.336;2022-10-16T07:30:04;16.00;99.90
14471;DHT22;7321;50.802;4.336;2022-10-16T07:32:30;16.10;99.90
14471;DHT22;7321;50.802;4.336;2022-10-16T07:34:56;16.10;99.90
14471;DHT22;7321;50.802;4.336;2022-10-16T07:37:22;16.30;99.90
14471;DHT22;7321;50.802;4.336;2022-10-16T07:39:47;16.40;99.90
14471;DHT22;7321;50.802;4.336;2022-10-16T07:42:16;16.50;99.90
14471;DHT22;7321;50.802;4.336;2022-10-16T07:44:41;16.60;99.90
14471;DHT22;7321;50.802;4.336;2022-10-16T07:47:07;16.50;99.90
14471;DHT22;7321;50.802;4.336;2022-10-16T07:49:33;16.50;99.90
14471;DHT22;7321;50.802;4.336;2022-10-16T07:51:59;16.50;99.90
14471;DHT22;7321;50.802;4.336;2022-10-16T07:54:24;16.60;99.90
14471;DHT22;7321;50.802;4.336;2022-10-16T07:56:52;16.70;99.90
14471;DHT22;7321;50.802;4.336;2022-10-16T07:59:18;16.70;99.90
14471;DHT22;7321;50.802;4.336;2022-10-16T08:01:44;16.70;99.90
14471;DHT22;7321;50.802;4.336;2022-10-16T08:04:10;16.70;99.90
14471;DHT22;7321;50.802;4.336;2022-10-16T08:06:40;16.80;99.90
14471;DHT22;7321;50.802;4.336;2022-10-16T08:09:15;16.90;99.90
14471;DHT22;7321;50.802;4.336;2022-10-16T08:11:41;17.00;99.90
14471;DHT22;7321;50.802;4.336;2022-10-16T08:14:06;17.00;99.90
14471;DHT22;7321;50.802;4.336;2022-10-16T08:16:32;17.10;99.90
14471;DHT22;7321;50.802;4.336;2022-10-16T08:18:58;17.10;99.90
14471;DHT22;7321;50.802;4.336;2022-10-16T08:21:23;17.20;99.90
14471;DHT22;7321;50.802;4.336;2022-10-16T08:23:50;17.20;99.90
14471;DHT22;7321;50.802;4.336;2022-10-16T08:26:16;17.30;99.90
14471;DHT22;7321;50.802;4.336;2022-10-16T08:28:42;17.20;99.90
14471;DHT22;7321;50.802;4.336;2022-10-16T08:31:11;17.20;99.90
14471;DHT22;7321;50.802;4.336;2022-10-16T08:33:38;17.30;99.90
14471;DHT22;7321;50.802;4.336;2022-10-16T08:36:05;17.50;99.90
14471;DHT22;7321;50.802;4.336;2022-10-16T08:38:31;17.60;99.90
14471;DHT22;7321;50.802;4.336;2022-10-16T08:44:34;17.80;99.90
14471;DHT22;7321;50.802;4.336;2022-10-16T08:47:26;18.00;99.90
14471;DHT22;7321;50.802;4.336;2022-10-16T08:50:10;18.10;99.90
14471;DHT22;7321;50.802;4.336;2022-10-16T08:52:41;18.10;99.90
14471;DHT22;7321;50.802;4.336;2022-10-16T08:55:42;18.10;99.90
14471;DHT22;7321;50.802;4.336;2022-10-16T08:58:18;18.20;99.90
14471;DHT22;7321;50.802;4.336;2022-10-16T09:00:51;18.40;99.90
14471;DHT22;7321;50.802;4.336;2022-10-16T09:14:04;18.60;99.90
14471;DHT22;7321;50.802;4.336;2022-10-16T09:16:43;18.70;99.90
14471;DHT22;7321;50.802;4.336;2022-10-16T09:19:33;18.80;99.90
14471;DHT22;7321;50.802;4.336;2022-10-16T09:22:12;18.90;99.90
14471;DHT22;7321;50.802;4.336;2022-10-16T09:24:38;19.00;99.90
14471;DHT22;7321;50.802;4.336;2022-10-16T09:27:04;19.10;99.90
14471;DHT22;7321;50.802;4.336;2022-10-16T09:29:32;19.30;99.90
14471;DHT22;7321;50.802;4.336;2022-10-16T09:32:10;19.50;99.90
14471;DHT22;7321;50.802;4.336;2022-10-16T09:34:45;19.70;99.90
14471;DHT22;7321;50.802;4.336;2022-10-16T09:37:19;20.00;99.90
14471;DHT22;7321;50.802;4.336;2022-10-16T09:39:54;20.10;99.90
14471;DHT22;7321;50.802;4.336;2022-10-16T09:42:27;20.30;99.90
14471;DHT22;7321;50.802;4.336;2022-10-16T09:44:56;20.50;99.90
14471;DHT22;7321;50.802;4.336;2022-10-16T09:47:27;20.60;99.90
14471;DHT22;7321;50.802;4.336;2022-10-16T09:50:02;20.60;99.90
14471;DHT22;7321;50.802;4.336;2022-10-16T09:52:31;20.60;99.90
14471;DHT22;7321;50.802;4.336;2022-10-16T09:55:12;20.50;99.90
14471;DHT22;7321;50.802;4.336;2022-10-16T09:57:52;20.40;99.90
14471;DHT22;7321;50.802;4.336;2022-10-16T10:00:19;20.30;99.90
14471;DHT22;7321;50.802;4.336;2022-10-16T10:02:45;20.30;99.90
14471;DHT22;7321;50.802;4.336;2022-10-16T10:05:38;20.30;99.90
14471;DHT22;7321;50.802;4.336;2022-10-16T10:08:05;20.40;99.90
14471;DHT22;7321;50.802;4.336;2022-10-16T10:10:41;20.40;99.90
14471;DHT22;7321;50.802;4.336;2022-10-16T10:13:22;20.40;99.90
14471;DHT22;7321;50.802;4.336;2022-10-16T10:15:52;20.40;99.90
14471;DHT22;7321;50.802;4.336;2022-10-16T10:18:22;20.30;99.90
14471;DHT22;7321;50.802;4.336;2022-10-16T10:21:02;20.10;99.90
14471;DHT22;7321;50.802;4.336;2022-10-16T10:23:29;20.20;99.90
14471;DHT22;7321;50.802;4.336;2022-10-16T10:26:04;20.30;99.90
14471;DHT22;7321;50.802;4.336;2022-10-16T10:34:54;20.70;99.90
14471;DHT22;7321;50.802;4.336;2022-10-16T10:37:30;20.70;99.90
14471;DHT22;7321;50.802;4.336;2022-10-16T10:40:05;20.70;99.90
14471;DHT22;7321;50.802;4.336;2022-10-16T10:42:53;20.80;99.90
14471;DHT22;7321;50.802;4.336;2022-10-16T10:45:42;20.80;99.90
14471;DHT22;7321;50.802;4.336;2022-10-16T10:51:10;20.70;99.90
14471;DHT22;7321;50.802;4.336;2022-10-16T11:02:10;21.10;99.90
14471;DHT22;7321;50.802;4.336;2022-10-16T11:04:48;21.20;99.90
14471;DHT22;7321;50.802;4.336;2022-10-16T11:07:34;21.20;99.90
14471;DHT22;7321;50.802;4.336;2022-10-16T11:10:15;21.30;99.90
14471;DHT22;7321;50.802;4.336;2022-10-16T11:12:46;21.30;99.90
14471;DHT22;7321;50.802;4.336;2022-10-16T11:15:28;21.40;99.90
14471;DHT22;7321;50.802;4.336;2022-10-16T11:18:07;21.40;99.90
14471;DHT22;7321;50.802;4.336;2022-10-16T11:20:52;21.40;99.90
14471;DHT22;7321;50.802;4.336;2022-10-16T11:23:26;21.40;99.90
14471;DHT22;7321;50.802;4.336;2022-10-16T11:26:02;21.40;99.90
14471;DHT22;7321;50.802;4.336;2022-10-16T11:28:37;21.30;99.90
14471;DHT22;7321;50.802;4.336;2022-10-16T11:31:10;21.40;99.90
14471;DHT22;7321;50.802;4.336;2022-10-16T11:33:44;21.50;99.90
14471;DHT22;7321;50.802;4.336;2022-10-16T11:36:16;21.50;99.90
14471;DHT22;7321;50.802;4.336;2022-10-16T11:38:45;21.60;99.90
14471;DHT22;7321;50.802;4.336;2022-10-16T11:41:18;21.60;99.90
14471;DHT22;7321;50.802;4.336;2022-10-16T11:43:57;21.60;99.90
14471;DHT22;7321;50.802;4.336;2022-10-16T11:46:24;21.50;99.90
14471;DHT22;7321;50.802;4.336;2022-10-16T11:49:09;21.30;99.90
14471;DHT22;7321;50.802;4.336;2022-10-16T11:51:41;21.10;99.90
14471;DHT22;7321;50.802;4.336;2022-10-16T11:54:24;21.00;99.90
14471;DHT22;7321;50.802;4.336;2022-10-16T11:56:59;21.00;99.90
14471;DHT22;7321;50.802;4.336;2022-10-16T12:02:26;21.10;99.90
14471;DHT22;7321;50.802;4.336;2022-10-16T12:05:27;21.20;99.90
14471;DHT22;7321;50.802;4.336;2022-10-16T12:08:01;21.30;99.90
14471;DHT22;7321;50.802;4.336;2022-10-16T12:10:29;21.50;99.90
14471;DHT22;7321;50.802;4.336;2022-10-16T12:13:03;21.60;99.90
14471;DHT22;7321;50.802;4.336;2022-10-16T12:15:33;21.80;99.90
14471;DHT22;7321;50.802;4.336;2022-10-16T12:18:00;21.90;99.90
14471;DHT22;7321;50.802;4.336;2022-10-16T12:20:31;21.70;99.90
14471;DHT22;7321;50.802;4.336;2022-10-16T12:23:00;21.60;99.90
14471;DHT22;7321;50.802;4.336;2022-10-16T12:25:35;21.60;99.90
14471;DHT22;7321;50.802;4.336;2022-10-16T12:30:38;21.80;99.90
14471;DHT22;7321;50.802;4.336;2022-10-16T12:33:19;22.00;99.90
14471;DHT22;7321;50.802;4.336;2022-10-16T12:35:50;21.80;99.90
14471;DHT22;7321;50.802;4.336;2022-10-16T12:41:07;21.80;99.90
14471;DHT22;7321;50.802;4.336;2022-10-16T12:43:46;22.00;99.90
14471;DHT22;7321;50.802;4.336;2022-10-16T12:48:44;22.00;99.90
14471;DHT22;7321;50.802;4.336;2022-10-16T12:51:35;22.10;99.90
14471;DHT22;7321;50.802;4.336;2022-10-16T13:05:48;22.10;99.90
14471;DHT22;7321;50.802;4.336;2022-10-16T13:11:27;22.10;99.90
14471;DHT22;7321;50.802;4.336;2022-10-16T13:17:19;22.00;99.90
14471;DHT22;7321;50.802;4.336;2022-10-16T13:28:11;22.40;99.90
14471;DHT22;7321;50.802;4.336;2022-10-16T13:33:52;22.40;99.90
14471;DHT22;7321;50.802;4.336;2022-10-16T13:35:54;22.50;99.90
14471;DHT22;7321;50.802;4.336;2022-10-16T13:38:29;22.70;99.90
14471;DHT22;7321;50.802;4.336;2022-10-16T13:41:15;22.80;99.90
14471;DHT22;7321;50.802;4.336;2022-10-16T13:43:49;22.70;99.90
14471;DHT22;7321;50.802;4.336;2022-10-16T13:46:19;22.60;99.90
14471;DHT22;7321;50.802;4.336;2022-10-16T13:49:00;22.50;99.90
14471;DHT22;7321;50.802;4.336;2022-10-16T13:51:35;22.40;99.90
14471;DHT22;7321;50.802;4.336;2022-10-16T13:54:28;22.30;99.90
14471;DHT22;7321;50.802;4.336;2022-10-16T13:59:51;22.10;99.90
14471;DHT22;7321;50.802;4.336;2022-10-16T14:02:25;22.20;99.90
14471;DHT22;7321;50.802;4.336;2022-10-16T14:04:53;22.30;99.90
14471;DHT22;7321;50.802;4.336;2022-10-16T14:07:42;22.40;99.90
14471;DHT22;7321;50.802;4.336;2022-10-16T14:10:32;22.30;99.90
14471;DHT22;7321;50.802;4.336;2022-10-16T14:13:00;22.20;99.90
14471;DHT22;7321;50.802;4.336;2022-10-16T14:15:27;22.00;99.90
14471;DHT22;7321;50.802;4.336;2022-10-16T14:17:55;22.10;99.90
14471;DHT22;7321;50.802;4.336;2022-10-16T14:20:26;22.10;99.90
14471;DHT22;7321;50.802;4.336;2022-10-16T14:23:49;22.10;99.90
14471;DHT22;7321;50.802;4.336;2022-10-16T14:25:52;22.10;99.90
14471;DHT22;7321;50.802;4.336;2022-10-16T14:28:18;22.00;99.90
14471;DHT22;7321;50.802;4.336;2022-10-16T14:30:59;21.90;99.90
14471;DHT22;7321;50.802;4.336;2022-10-16T14:38:39;22.10;99.90
14471;DHT22;7321;50.802;4.336;2022-10-16T14:41:05;22.00;99.90
14471;DHT22;7321;50.802;4.336;2022-10-16T14:43:34;22.00;99.90
14471;DHT22;7321;50.802;4.336;2022-10-16T14:46:11;22.00;99.90
14471;DHT22;7321;50.802;4.336;2022-10-16T14:48:45;21.80;99.90
14471;DHT22;7321;50.802;4.336;2022-10-16T14:51:20;21.70;99.90
14471;DHT22;7321;50.802;4.336;2022-10-16T14:53:46;21.70;99.90
14471;DHT22;7321;50.802;4.336;2022-10-16T14:56:19;21.60;99.90
14471;DHT22;7321;50.802;4.336;2022-10-16T14:58:53;21.70;99.90
14471;DHT22;7321;50.802;4.336;2022-10-16T15:01:23;21.70;99.90
14471;DHT22;7321;50.802;4.336;2022-10-16T15:03:52;21.70;99.90
14471;DHT22;7321;50.802;4.336;2022-10-16T15:06:20;21.80;99.90
14471;DHT22;7321;50.802;4.336;2022-10-16T15:08:46;21.90;99.90
14471;DHT22;7321;50.802;4.336;2022-10-16T15:11:15;21.80;99.90
14471;DHT22;7321;50.802;4.336;2022-10-16T15:13:41;21.80;99.90
14471;DHT22;7321;50.802;4.336;2022-10-16T15:16:16;21.80;99.90
14471;DHT22;7321;50.802;4.336;2022-10-16T15:18:43;21.80;99.90
14471;DHT22;7321;50.802;4.336;2022-10-16T15:21:18;21.60;99.90
14471;DHT22;7321;50.802;4.336;2022-10-16T15:23:49;21.50;99.90
14471;DHT22;7321;50.802;4.336;2022-10-16T15:26:16;21.40;99.90
14471;DHT22;7321;50.802;4.336;2022-10-16T15:28:42;21.40;99.90
14471;DHT22;7321;50.802;4.336;2022-10-16T15:31:10;21.40;99.90
14471;DHT22;7321;50.802;4.336;2022-10-16T15:33:37;21.40;99.90
14471;DHT22;7321;50.802;4.336;2022-10-16T15:36:03;21.30;99.90
14471;DHT22;7321;50.802;4.336;2022-10-16T15:38:30;21.40;99.90
14471;DHT22;7321;50.802;4.336;2022-10-16T15:40:55;21.30;99.90
14471;DHT22;7321;50.802;4.336;2022-10-16T15:43:21;21.20;99.90
14471;DHT22;7321;50.802;4.336;2022-10-16T15:46:03;21.30;99.90
14471;DHT22;7321;50.802;4.336;2022-10-16T15:48:30;21.30;99.90
14471;DHT22;7321;50.802;4.336;2022-10-16T15:50:56;21.20;99.90
14471;DHT22;7321;50.802;4.336;2022-10-16T15:53:24;21.20;99.90
14471;DHT22;7321;50.802;4.336;2022-10-16T15:55:50;21.10;99.90
14471;DHT22;7321;50.802;4.336;2022-10-16T15:58:16;21.00;99.90
14471;DHT22;7321;50.802;4.336;2022-10-16T16:00:42;20.90;99.90
14471;DHT22;7321;50.802;4.336;2022-10-16T16:03:08;20.90;99.90
14471;DHT22;7321;50.802;4.336;2022-10-16T16:05:40;20.90;99.90
14471;DHT22;7321;50.802;4.336;2022-10-16T16:08:06;20.90;99.90
14471;DHT22;7321;50.802;4.336;2022-10-16T16:10:31;20.80;99.90
14471;DHT22;7321;50.802;4.336;2022-10-16T16:13:00;20.80;99.90
14471;DHT22;7321;50.802;4.336;2022-10-16T16:15:26;20.70;99.90
14471;DHT22;7321;50.802;4.336;2022-10-16T16:17:52;20.70;99.90
14471;DHT22;7321;50.802;4.336;2022-10-16T16:20:17;20.60;99.90
14471;DHT22;7321;50.802;4.336;2022-10-16T16:22:43;20.50;99.90
14471;DHT22;7321;50.802;4.336;2022-10-16T16:25:09;20.50;99.90
14471;DHT22;7321;50.802;4.336;2022-10-16T16:27:35;20.50;99.90
14471;DHT22;7321;50.802;4.336;2022-10-16T16:30:05;20.40;99.90
14471;DHT22;7321;50.802;4.336;2022-10-16T16:32:33;20.40;99.90
14471;DHT22;7321;50.802;4.336;2022-10-16T16:35:00;20.40;99.90
14471;DHT22;7321;50.802;4.336;2022-10-16T16:37:25;20.30;99.90
14471;DHT22;7321;50.802;4.336;2022-10-16T16:39:51;20.30;99.90
14471;DHT22;7321;50.802;4.336;2022-10-16T16:42:17;20.30;99.90
14471;DHT22;7321;50.802;4.336;2022-10-16T16:44:43;20.10;99.90
14471;DHT22;7321;50.802;4.336;2022-10-16T16:47:11;20.10;99.90
14471;DHT22;7321;50.802;4.336;2022-10-16T16:49:36;20.00;99.90
14471;DHT22;7321;50.802;4.336;2022-10-16T16:52:02;19.90;99.90
14471;DHT22;7321;50.802;4.336;2022-10-16T16:54:28;19.80;99.90
14471;DHT22;7321;50.802;4.336;2022-10-16T16:56:54;19.90;99.90
14471;DHT22;7321;50.802;4.336;2022-10-16T16:59:21;19.90;99.90
14471;DHT22;7321;50.802;4.336;2022-10-16T17:01:47;19.90;99.90
14471;DHT22;7321;50.802;4.336;2022-10-16T17:04:13;19.90;99.90
14471;DHT22;7321;50.802;4.336;2022-10-16T17:06:41;19.90;99.90
14471;DHT22;7321;50.802;4.336;2022-10-16T17:09:07;19.90;99.90
14471;DHT22;7321;50.802;4.336;2022-10-16T17:11:34;19.90;99.90
14471;DHT22;7321;50.802;4.336;2022-10-16T17:14:00;19.80;99.90
14471;DHT22;7321;50.802;4.336;2022-10-16T17:16:35;19.80;99.90
14471;DHT22;7321;50.802;4.336;2022-10-16T17:19:03;19.80;99.90
14471;DHT22;7321;50.802;4.336;2022-10-16T17:21:29;19.80;99.90
14471;DHT22;7321;50.802;4.336;2022-10-16T17:23:57;19.80;99.90
14471;DHT22;7321;50.802;4.336;2022-10-16T17:26:24;19.70;99.90
14471;DHT22;7321;50.802;4.336;2022-10-16T17:28:51;19.70;99.90
14471;DHT22;7321;50.802;4.336;2022-10-16T17:31:20;19.50;99.90
14471;DHT22;7321;50.802;4.336;2022-10-16T17:33:47;19.40;99.90
14471;DHT22;7321;50.802;4.336;2022-10-16T17:36:13;19.30;99.90
14471;DHT22;7321;50.802;4.336;2022-10-16T17:38:45;19.40;99.90
14471;DHT22;7321;50.802;4.336;2022-10-16T17:41:21;19.30;99.90